sensor_id;sensor_type;location;lat;lon;timestamp;pressure;altitude;pressure_sealevel;temperature;humidity
19789;BME280;10054;59.332;18.244;2024-01-15T00:00:24;98027.39;;;-3.98;100.00
19789;BME280;10054;59.332;18.244;2024-01-15T00:02:53;98025.41;;;-4.02;100.00
19789;BME280;10054;59.332;18.244;2024-01-15T00:05:24;98022.96;;;-4.05;100.00
19789;BME280;10054;59.332;18.244;2024-01-15T00:07:53;98018.79;;;-4.07;100.00
19789;BME280;10054;59.332;18.244;2024-01-15T00:10:22;98017.50;;;-4.07;100.00
19789;BME280;10054;59.332;18.244;2024-01-15T00:12:51;98010.69;;;-4.08;100.00
19789;BME280;10054;59.332;18.244;2024-01-15T00:15:21;98011.90;;;-4.07;100.00
19789;BME280;10054;59.332;18.244;2024-01-15T00:17:52;98005.98;;;-4.09;100.00
19789;BME280;10054;59.332;18.244;2024-01-15T00:20:21;98015.52;;;-4.11;100.00
19789;BME280;10054;59.332;18.244;2024-01-15T00:22:49;98010.05;;;-4.13;100.00
19789;BME280;10054;59.332;18.244;2024-01-15T00:25:18;98003.09;;;-4.11;100.00
19789;BME280;10054;59.332;18.244;2024-01-15T00:27:47;98004.84;;;-4.12;100.00
19789;BME280;10054;59.332;18.244;2024-01-15T00:30:16;98004.00;;;-4.12;100.00
19789;BME280;10054;59.332;18.244;2024-01-15T00:32:45;98007.48;;;-4.13;100.00
19789;BME280;10054;59.332;18.244;2024-01-15T00:35:16;98000.59;;;-4.13;100.00
19789;BME280;10054;59.332;18.244;2024-01-15T00:37:44;98002.72;;;-4.12;100.00
19789;BME280;10054;59.332;18.244;2024-01-15T00:40:13;97994.67;;;-4.15;100.00
19789;BME280;10054;59.332;18.244;2024-01-15T00:42:42;97995.52;;;-4.14;100.00
19789;BME280;10054;59.332;18.244;2024-01-15T00:45:11;97993.39;;;-4.15;100.00
19789;BME280;10054;59.332;18.244;2024-01-15T00:47:41;97995.96;;;-4.15;100.00
19789;BME280;10054;59.332;18.244;2024-01-15T00:50:11;97996.69;;;-4.21;100.00
19789;BME280;10054;59.332;18.244;2024-01-15T00:52:40;97993.42;;;-4.25;100.00
19789;BME280;10054;59.332;18.244;2024-01-15T00:55:09;97979.86;;;-4.28;100.00
19789;BME280;10054;59.332;18.244;2024-01-15T00:57:38;97983.64;;;-4.27;100.00
19789;BME280;10054;59.332;18.244;2024-01-15T01:00:07;97981.66;;;-4.31;100.00
19789;BME280;10054;59.332;18.244;2024-01-15T01:02:36;97982.70;;;-4.35;100.00
19789;BME280;10054;59.332;18.244;2024-01-15T01:05:05;97977.10;;;-4.34;100.00
19789;BME280;10054;59.332;18.244;2024-01-15T01:07:34;97982.39;;;-4.37;100.00
19789;BME280;10054;59.332;18.244;2024-01-15T01:10:05;97978.21;;;-4.40;100.00
19789;BME280;10054;59.332;18.244;2024-01-15T01:12:34;97967.98;;;-4.41;100.00
19789;BME280;10054;59.332;18.244;2024-01-15T01:15:03;97968.05;;;-4.43;100.00
19789;BME280;10054;59.332;18.244;2024-01-15T01:17:32;97965.41;;;-4.41;100.00
19789;BME280;10054;59.332;18.244;2024-01-15T01:20:01;97954.36;;;-4.43;100.00
19789;BME280;10054;59.332;18.244;2024-01-15T01:22:31;97960.34;;;-4.43;100.00
19789;BME280;10054;59.332;18.244;2024-01-15T01:25:00;97955.58;;;-4.42;100.00
19789;BME280;10054;59.332;18.244;2024-01-15T01:27:30;97949.98;;;-4.41;100.00
19789;BME280;10054;59.332;18.244;2024-01-15T01:29:59;97956.55;;;-4.44;100.00
19789;BME280;10054;59.332;18.244;2024-01-15T01:32:29;97954.66;;;-4.49;100.00
19789;BME280;10054;59.332;18.244;2024-01-15T01:34:58;97948.16;;;-4.48;100.00
19789;BME280;10054;59.332;18.244;2024-01-15T01:37:27;97951.25;;;-4.50;100.00
19789;BME280;10054;59.332;18.244;2024-01-15T01:39:56;97944.51;;;-4.52;100.00
19789;BME280;10054;59.332;18.244;2024-01-15T01:42:27;97947.08;;;-4.52;100.00
19789;BME280;10054;59.332;18.244;2024-01-15T01:44:56;97935.64;;;-4.55;100.00
19789;BME280;10054;59.332;18.244;2024-01-15T01:47:25;97938.91;;;-4.52;100.00
19789;BME280;10054;59.332;18.244;2024-01-15T01:49:54;97935.89;;;-4.51;100.00
19789;BME280;10054;59.332;18.244;2024-01-15T01:52:24;97925.14;;;-4.51;100.00
19789;BME280;10054;59.332;18.244;2024-01-15T01:54:54;97928.48;;;-4.49;100.00
19789;BME280;10054;59.332;18.244;2024-01-15T01:57:23;97923.41;;;-4.50;100.00
19789;BME280;10054;59.332;18.244;2024-01-15T01:59:52;97926.11;;;-4.53;100.00
19789;BME280;10054;59.332;18.244;2024-01-15T02:02:23;97924.13;;;-4.57;100.00
19789;BME280;10054;59.332;18.244;2024-01-15T02:04:52;97916.48;;;-4.58;100.00
19789;BME280;10054;59.332;18.244;2024-01-15T02:07:22;97916.55;;;-4.60;100.00
19789;BME280;10054;59.332;18.244;2024-01-15T02:09:51;97917.00;;;-4.60;100.00
19789;BME280;10054;59.332;18.244;2024-01-15T02:12:20;97914.36;;;-4.59;100.00
19789;BME280;10054;59.332;18.244;2024-01-15T02:14:49;97922.15;;;-4.60;100.00
19789;BME280;10054;59.332;18.244;2024-01-15T02:17:18;97919.78;;;-4.65;100.00
19789;BME280;10054;59.332;18.244;2024-01-15T02:19:47;97910.91;;;-4.68;100.00
19789;BME280;10054;59.332;18.244;2024-01-15T02:22:15;97911.30;;;-4.67;100.00
19789;BME280;10054;59.332;18.244;2024-01-15T02:24:44;97919.98;;;-4.70;100.00
19789;BME280;10054;59.332;18.244;2024-01-15T02:27:13;97913.55;;;-4.70;100.00
19789;BME280;10054;59.332;18.244;2024-01-15T02:29:43;97915.74;;;-4.71;100.00
19789;BME280;10054;59.332;18.244;2024-01-15T02:32:12;97908.93;;;-4.72;100.00
19789;BME280;10054;59.332;18.244;2024-01-15T02:34:41;97905.20;;;-4.75;100.00
19789;BME280;10054;59.332;18.244;2024-01-15T02:37:10;97903.41;;;-4.73;100.00
19789;BME280;10054;59.332;18.244;2024-01-15T02:39:39;97911.05;;;-4.71;100.00
19789;BME280;10054;59.332;18.244;2024-01-15T02:42:07;97901.28;;;-4.73;100.00
19789;BME280;10054;59.332;18.244;2024-01-15T02:44:36;97896.45;;;-4.71;100.00
19789;BME280;10054;59.332;18.244;2024-01-15T02:47:05;97896.00;;;-4.70;100.00
19789;BME280;10054;59.332;18.244;2024-01-15T02:49:34;97898.95;;;-4.69;100.00
19789;BME280;10054;59.332;18.244;2024-01-15T02:52:03;97896.07;;;-4.72;100.00
19789;BME280;10054;59.332;18.244;2024-01-15T02:54:32;97897.11;;;-4.76;100.00
19789;BME280;10054;59.332;18.244;2024-01-15T02:57:00;97895.83;;;-4.76;100.00
19789;BME280;10054;59.332;18.244;2024-01-15T02:59:30;97901.80;;;-4.75;100.00
19789;BME280;10054;59.332;18.244;2024-01-15T03:01:59;97903.16;;;-4.77;100.00
19789;BME280;10054;59.332;18.244;2024-01-15T03:04:28;97891.97;;;-4.76;100.00
19789;BME280;10054;59.332;18.244;2024-01-15T03:06:57;97899.30;;;-4.77;100.00
19789;BME280;10054;59.332;18.244;2024-01-15T03:09:26;97903.16;;;-4.77;100.00
19789;BME280;10054;59.332;18.244;2024-01-15T03:11:56;97893.00;;;-4.80;100.00
19789;BME280;10054;59.332;18.244;2024-01-15T03:14:26;97909.34;;;-4.81;100.00
19789;BME280;10054;59.332;18.244;2024-01-15T03:16:56;97918.61;;;-4.87;100.00
19789;BME280;10054;59.332;18.244;2024-01-15T03:19:25;97918.80;;;-4.91;100.00
19789;BME280;10054;59.332;18.244;2024-01-15T03:21:55;97907.63;;;-5.01;100.00
19789;BME280;10054;59.332;18.244;2024-01-15T03:24:24;97912.70;;;-4.99;100.00
19789;BME280;10054;59.332;18.244;2024-01-15T03:26:53;97933.09;;;-5.05;100.00
19789;BME280;10054;59.332;18.244;2024-01-15T03:29:22;97904.81;;;-5.05;100.00
19789;BME280;10054;59.332;18.244;2024-01-15T03:31:51;97907.13;;;-5.09;100.00
19789;BME280;10054;59.332;18.244;2024-01-15T03:34:20;97904.49;;;-5.07;100.00
19789;BME280;10054;59.332;18.244;2024-01-15T03:36:48;97907.52;;;-5.08;100.00
19789;BME280;10054;59.332;18.244;2024-01-15T03:39:17;97906.48;;;-5.04;100.00
19789;BME280;10054;59.332;18.244;2024-01-15T03:41:46;97914.96;;;-5.02;100.00
19789;BME280;10054;59.332;18.244;2024-01-15T03:44:14;97908.53;;;-5.02;100.00
19789;BME280;10054;59.332;18.244;2024-01-15T03:46:43;97907.63;;;-5.01;100.00
19789;BME280;10054;59.332;18.244;2024-01-15T03:49:12;97911.17;;;-5.03;100.00
19789;BME280;10054;59.332;18.244;2024-01-15T03:51:43;97910.27;;;-5.02;100.00
19789;BME280;10054;59.332;18.244;2024-01-15T03:54:11;97918.88;;;-5.03;100.00
19789;BME280;10054;59.332;18.244;2024-01-15T03:56:40;97912.39;;;-5.02;100.00
19789;BME280;10054;59.332;18.244;2024-01-15T03:59:09;97913.22;;;-5.01;100.00
19789;BME280;10054;59.332;18.244;2024-01-15T04:01:37;97915.41;;;-5.02;100.00
19789;BME280;10054;59.332;18.244;2024-01-15T04:04:06;97914.64;;;-5.04;100.00
19789;BME280;10054;59.332;18.244;2024-01-15T04:06:35;97910.91;;;-5.07;100.00
19789;BME280;10054;59.332;18.244;2024-01-15T04:09:04;97911.44;;;-5.09;100.00
19789;BME280;10054;59.332;18.244;2024-01-15T04:11:32;97908.34;;;-5.07;100.00
19789;BME280;10054;59.332;18.244;2024-01-15T04:14:01;97910.73;;;-5.13;100.00
19789;BME280;10054;59.332;18.244;2024-01-15T04:16:30;97908.73;;;-5.16;100.00
19789;BME280;10054;59.332;18.244;2024-01-15T04:19:00;97907.45;;;-5.16;100.00
19789;BME280;10054;59.332;18.244;2024-01-15T04:21:29;97913.78;;;-5.23;100.00
19789;BME280;10054;59.332;18.244;2024-01-15T04:23:58;97909.09;;;-5.24;100.00
19789;BME280;10054;59.332;18.244;2024-01-15T04:26:27;97911.28;;;-5.25;100.00
19789;BME280;10054;59.332;18.244;2024-01-15T04:28:55;97916.88;;;-5.25;100.00
19789;BME280;10054;59.332;18.244;2024-01-15T04:31:26;97917.77;;;-5.26;100.00
19789;BME280;10054;59.332;18.244;2024-01-15T04:33:56;97915.08;;;-5.23;100.00
19789;BME280;10054;59.332;18.244;2024-01-15T04:36:25;97918.54;;;-5.24;100.00
19789;BME280;10054;59.332;18.244;2024-01-15T04:38:54;97921.50;;;-5.23;100.00
19789;BME280;10054;59.332;18.244;2024-01-15T04:41:25;97911.22;;;-5.23;100.00
19789;BME280;10054;59.332;18.244;2024-01-15T04:43:53;97911.28;;;-5.25;100.00
19789;BME280;10054;59.332;18.244;2024-01-15T04:46:21;97919.50;;;-5.27;100.00
19789;BME280;10054;59.332;18.244;2024-01-15T04:48:52;97918.86;;;-5.32;100.00
19789;BME280;10054;59.332;18.244;2024-01-15T04:51:20;97919.05;;;-5.37;100.00
19789;BME280;10054;59.332;18.244;2024-01-15T04:53:49;97918.22;;;-5.37;100.00
19789;BME280;10054;59.332;18.244;2024-01-15T04:56:18;97918.16;;;-5.36;100.00
19789;BME280;10054;59.332;18.244;2024-01-15T04:58:47;97923.42;;;-5.39;100.00
19789;BME280;10054;59.332;18.244;2024-01-15T05:01:16;97927.41;;;-5.42;100.00
19789;BME280;10054;59.332;18.244;2024-01-15T05:03:45;97930.48;;;-5.44;100.00
19789;BME280;10054;59.332;18.244;2024-01-15T05:06:14;97923.73;;;-5.46;100.00
19789;BME280;10054;59.332;18.244;2024-01-15T05:08:42;97924.83;;;-5.52;100.00
19789;BME280;10054;59.332;18.244;2024-01-15T05:11:11;97921.74;;;-5.50;100.00
19789;BME280;10054;59.332;18.244;2024-01-15T05:13:40;97920.97;;;-5.52;100.00
19789;BME280;10054;59.332;18.244;2024-01-15T05:16:09;97920.20;;;-5.54;100.00
19789;BME280;10054;59.332;18.244;2024-01-15T05:18:38;97922.19;;;-5.50;100.00
19789;BME280;10054;59.332;18.244;2024-01-15T05:21:06;97933.30;;;-5.50;100.00
19789;BME280;10054;59.332;18.244;2024-01-15T05:23:35;97925.53;;;-5.48;100.00
19789;BME280;10054;59.332;18.244;2024-01-15T05:26:04;97927.27;;;-5.49;100.00
19789;BME280;10054;59.332;18.244;2024-01-15T05:28:33;97926.75;;;-5.47;100.00
19789;BME280;10054;59.332;18.244;2024-01-15T05:31:01;97925.86;;;-5.46;100.00
19789;BME280;10054;59.332;18.244;2024-01-15T05:33:31;97920.33;;;-5.47;100.00
19789;BME280;10054;59.332;18.244;2024-01-15T05:36:00;97930.16;;;-5.46;100.00
19789;BME280;10054;59.332;18.244;2024-01-15T05:38:30;97927.97;;;-5.45;100.00
19789;BME280;10054;59.332;18.244;2024-01-15T05:40:58;97936.52;;;-5.45;100.00
19789;BME280;10054;59.332;18.244;2024-01-15T05:43:27;97934.91;;;-5.47;100.00
19789;BME280;10054;59.332;18.244;2024-01-15T05:45:56;97929.33;;;-5.47;100.00
19789;BME280;10054;59.332;18.244;2024-01-15T05:48:25;97931.44;;;-5.46;100.00
19789;BME280;10054;59.332;18.244;2024-01-15T05:50:54;97931.95;;;-5.48;100.00
19789;BME280;10054;59.332;18.244;2024-01-15T05:53:24;97929.45;;;-5.50;100.00
19789;BME280;10054;59.332;18.244;2024-01-15T05:55:53;97928.61;;;-5.50;100.00
19789;BME280;10054;59.332;18.244;2024-01-15T05:58:23;97929.45;;;-5.50;100.00
19789;BME280;10054;59.332;18.244;2024-01-15T06:00:52;97930.34;;;-5.51;100.00
19789;BME280;10054;59.332;18.244;2024-01-15T06:03:21;97938.56;;;-5.53;100.00
19789;BME280;10054;59.332;18.244;2024-01-15T06:05:49;97932.59;;;-5.53;100.00
19789;BME280;10054;59.332;18.244;2024-01-15T06:08:18;97937.66;;;-5.52;100.00
19789;BME280;10054;59.332;18.244;2024-01-15T06:10:48;97932.66;;;-5.55;100.00
19789;BME280;10054;59.332;18.244;2024-01-15T06:13:17;97957.89;;;-5.54;100.00
19789;BME280;10054;59.332;18.244;2024-01-15T06:15:46;97947.67;;;-5.56;100.00
19789;BME280;10054;59.332;18.244;2024-01-15T06:18:14;97939.46;;;-5.54;100.00
19789;BME280;10054;59.332;18.244;2024-01-15T06:20:43;97946.27;;;-5.53;100.00
19789;BME280;10054;59.332;18.244;2024-01-15T06:23:12;97941.01;;;-5.50;100.00
19789;BME280;10054;59.332;18.244;2024-01-15T06:25:41;97937.73;;;-5.53;100.00
19789;BME280;10054;59.332;18.244;2024-01-15T06:28:09;97952.23;;;-5.52;100.00
19789;BME280;10054;59.332;18.244;2024-01-15T06:30:39;97944.53;;;-5.52;100.00
19789;BME280;10054;59.332;18.244;2024-01-15T06:33:08;97951.85;;;-5.53;100.00
19789;BME280;10054;59.332;18.244;2024-01-15T06:35:38;97953.59;;;-5.54;100.00
19789;BME280;10054;59.332;18.244;2024-01-15T06:38:06;97957.11;;;-5.56;100.00
19789;BME280;10054;59.332;18.244;2024-01-15T06:40:36;97959.30;;;-5.57;100.00
19789;BME280;10054;59.332;18.244;2024-01-15T06:43:06;97963.09;;;-5.56;100.00
19789;BME280;10054;59.332;18.244;2024-01-15T06:45:35;97960.64;;;-5.59;100.00
19789;BME280;10054;59.332;18.244;2024-01-15T06:48:04;97960.64;;;-5.59;100.00
19789;BME280;10054;59.332;18.244;2024-01-15T06:50:35;97969.18;;;-5.58;100.00
19789;BME280;10054;59.332;18.244;2024-01-15T06:53:04;97970.52;;;-5.60;100.00
19789;BME280;10054;59.332;18.244;2024-01-15T06:55:34;97973.09;;;-5.60;100.00
19789;BME280;10054;59.332;18.244;2024-01-15T06:58:03;97970.20;;;-5.63;100.00
19789;BME280;10054;59.332;18.244;2024-01-15T07:00:34;97979.70;;;-5.65;100.00
19789;BME280;10054;59.332;18.244;2024-01-15T07:03:03;97971.09;;;-5.64;100.00
19789;BME280;10054;59.332;18.244;2024-01-15T07:05:32;97975.27;;;-5.61;100.00
19789;BME280;10054;59.332;18.244;2024-01-15T07:08:00;97975.78;;;-5.63;100.00
19789;BME280;10054;59.332;18.244;2024-01-15T07:10:29;97977.96;;;-5.64;100.00
19789;BME280;10054;59.332;18.244;2024-01-15T07:12:58;97981.48;;;-5.67;100.00
19789;BME280;10054;59.332;18.244;2024-01-15T07:15:27;97986.56;;;-5.65;100.00
19789;BME280;10054;59.332;18.244;2024-01-15T07:17:56;97978.59;;;-5.69;100.00
19789;BME280;10054;59.332;18.244;2024-01-15T07:20:24;97978.20;;;-5.70;100.00
19789;BME280;10054;59.332;18.244;2024-01-15T07:22:53;97985.97;;;-5.72;100.00
19789;BME280;10054;59.332;18.244;2024-01-15T07:25:26;97974.09;;;-5.74;100.00
19789;BME280;10054;59.332;18.244;2024-01-15T07:27:56;97988.66;;;-5.75;100.00
19789;BME280;10054;59.332;18.244;2024-01-15T07:30:25;97983.58;;;-5.76;100.00
19789;BME280;10054;59.332;18.244;2024-01-15T07:32:56;97979.34;;;-5.77;100.00
19789;BME280;10054;59.332;18.244;2024-01-15T07:35:26;97981.52;;;-5.78;100.00
19789;BME280;10054;59.332;18.244;2024-01-15T07:37:54;97981.52;;;-5.78;100.00
19789;BME280;10054;59.332;18.244;2024-01-15T07:40:23;97990.12;;;-5.79;100.00
19789;BME280;10054;59.332;18.244;2024-01-15T07:42:52;98011.22;;;-5.83;100.00
19789;BME280;10054;59.332;18.244;2024-01-15T07:45:21;97985.61;;;-5.84;100.00
19789;BME280;10054;59.332;18.244;2024-01-15T07:47:50;97997.94;;;-5.82;100.00
19789;BME280;10054;59.332;18.244;2024-01-15T07:50:19;97997.49;;;-5.82;100.00
19789;BME280;10054;59.332;18.244;2024-01-15T07:52:48;97993.70;;;-5.83;100.00
19789;BME280;10054;59.332;18.244;2024-01-15T07:55:17;98001.79;;;-5.82;100.00
19789;BME280;10054;59.332;18.244;2024-01-15T07:57:46;98004.23;;;-5.79;100.00
19789;BME280;10054;59.332;18.244;2024-01-15T08:00:15;98003.84;;;-5.80;100.00
19789;BME280;10054;59.332;18.244;2024-01-15T08:02:44;98002.63;;;-5.82;100.00
19789;BME280;10054;59.332;18.244;2024-01-15T08:05:12;98005.19;;;-5.82;100.00
19789;BME280;10054;59.332;18.244;2024-01-15T08:07:41;98004.74;;;-5.81;100.00
19789;BME280;10054;59.332;18.244;2024-01-15T08:10:10;98005.13;;;-5.80;100.00
19789;BME280;10054;59.332;18.244;2024-01-15T08:12:40;98014.12;;;-5.80;100.00
19789;BME280;10054;59.332;18.244;2024-01-15T08:15:09;98015.46;;;-5.82;100.00
19789;BME280;10054;59.332;18.244;2024-01-15T08:17:38;98017.58;;;-5.81;100.00
19789;BME280;10054;59.332;18.244;2024-01-15T08:20:07;98010.33;;;-5.82;100.00
19789;BME280;10054;59.332;18.244;2024-01-15T08:22:39;98014.51;;;-5.79;100.00
19789;BME280;10054;59.332;18.244;2024-01-15T08:25:08;98021.82;;;-5.80;100.00
19789;BME280;10054;59.332;18.244;2024-01-15T08:27:37;98021.43;;;-5.81;100.00
19789;BME280;10054;59.332;18.244;2024-01-15T08:30:07;98016.30;;;-5.81;100.00
19789;BME280;10054;59.332;18.244;2024-01-15T08:32:36;98017.41;;;-5.77;100.00
19789;BME280;10054;59.332;18.244;2024-01-15T08:35:06;98016.51;;;-5.76;100.00
19789;BME280;10054;59.332;18.244;2024-01-15T08:37:35;98024.99;;;-5.74;100.00
19789;BME280;10054;59.332;18.244;2024-01-15T08:40:04;98021.64;;;-5.76;100.00
19789;BME280;10054;59.332;18.244;2024-01-15T08:42:33;98020.75;;;-5.75;100.00
19789;BME280;10054;59.332;18.244;2024-01-15T08:45:01;98027.11;;;-5.73;100.00
19789;BME280;10054;59.332;18.244;2024-01-15T08:47:31;98029.80;;;-5.76;100.00
19789;BME280;10054;59.332;18.244;2024-01-15T08:50:00;98023.77;;;-5.75;100.00
19789;BME280;10054;59.332;18.244;2024-01-15T08:52:30;98015.11;;;-5.73;100.00
19789;BME280;10054;59.332;18.244;2024-01-15T08:54:58;98026.22;;;-5.72;100.00
19789;BME280;10054;59.332;18.244;2024-01-15T08:57:28;98025.20;;;-5.68;100.00
19789;BME280;10054;59.332;18.244;2024-01-15T08:59:57;98035.02;;;-5.68;100.00
19789;BME280;10054;59.332;18.244;2024-01-15T09:02:27;98026.22;;;-5.72;100.00
19789;BME280;10054;59.332;18.244;2024-01-15T09:04:56;98030.96;;;-5.73;100.00
19789;BME280;10054;59.332;18.244;2024-01-15T09:07:27;98038.33;;;-5.76;100.00
19789;BME280;10054;59.332;18.244;2024-01-15T09:09:55;98038.33;;;-5.76;100.00
19789;BME280;10054;59.332;18.244;2024-01-15T09:12:27;98032.24;;;-5.73;100.00
19789;BME280;10054;59.332;18.244;2024-01-15T09:14:59;98027.50;;;-5.72;100.00
19789;BME280;10054;59.332;18.244;2024-01-15T09:17:28;98029.56;;;-5.70;100.00
19789;BME280;10054;59.332;18.244;2024-01-15T09:19:57;98038.55;;;-5.70;100.00
19789;BME280;10054;59.332;18.244;2024-01-15T09:22:26;98046.03;;;-5.76;100.00
19789;BME280;10054;59.332;18.244;2024-01-15T09:24:55;98042.57;;;-5.75;100.00
19789;BME280;10054;59.332;18.244;2024-01-15T09:27:24;98037.50;;;-5.76;100.00
19789;BME280;10054;59.332;18.244;2024-01-15T09:29:56;98050.84;;;-5.78;100.00
19789;BME280;10054;59.332;18.244;2024-01-15T09:32:26;98047.38;;;-5.77;100.00
19789;BME280;10054;59.332;18.244;2024-01-15T09:34:55;98051.67;;;-5.78;100.00
19789;BME280;10054;59.332;18.244;2024-01-15T09:37:23;98058.88;;;-5.76;100.00
19789;BME280;10054;59.332;18.244;2024-01-15T09:39:53;98047.65;;;-5.73;100.00
19789;BME280;10054;59.332;18.244;2024-01-15T09:42:24;98042.75;;;-5.79;100.00
19789;BME280;10054;59.332;18.244;2024-01-15T09:44:54;98036.78;;;-5.80;100.00
19789;BME280;10054;59.332;18.244;2024-01-15T09:47:23;98056.09;;;-5.81;100.00
19789;BME280;10054;59.332;18.244;2024-01-15T09:49:52;98051.34;;;-5.80;100.00
19789;BME280;10054;59.332;18.244;2024-01-15T09:52:21;98052.57;;;-5.79;100.00
19789;BME280;10054;59.332;18.244;2024-01-15T09:54:51;98055.70;;;-5.82;100.00
19789;BME280;10054;59.332;18.244;2024-01-15T09:57:20;98058.21;;;-5.81;100.00
19789;BME280;10054;59.332;18.244;2024-01-15T09:59:50;98057.70;;;-5.79;100.00
19789;BME280;10054;59.332;18.244;2024-01-15T10:02:19;98060.66;;;-5.78;100.00
19789;BME280;10054;59.332;18.244;2024-01-15T10:04:48;98059.77;;;-5.77;100.00
19789;BME280;10054;59.332;18.244;2024-01-15T10:07:17;98064.73;;;-5.72;100.00
19789;BME280;10054;59.332;18.244;2024-01-15T10:09:47;98077.00;;;-5.69;100.00
19789;BME280;10054;59.332;18.244;2024-01-15T10:12:15;98058.47;;;-5.65;100.00
19789;BME280;10054;59.332;18.244;2024-01-15T10:14:45;98064.11;;;-5.67;100.00
19789;BME280;10054;59.332;18.244;2024-01-15T10:17:14;98069.84;;;-5.60;100.00
19789;BME280;10054;59.332;18.244;2024-01-15T10:19:47;98073.52;;;-5.56;100.00
19789;BME280;10054;59.332;18.244;2024-01-15T10:22:17;98075.20;;;-5.55;100.00
19789;BME280;10054;59.332;18.244;2024-01-15T10:24:48;98078.03;;;-5.51;100.00
19789;BME280;10054;59.332;18.244;2024-01-15T10:27:17;98077.47;;;-5.47;100.00
19789;BME280;10054;59.332;18.244;2024-01-15T10:29:46;98078.42;;;-5.50;100.00
19789;BME280;10054;59.332;18.244;2024-01-15T10:32:15;98077.59;;;-5.50;100.00
19789;BME280;10054;59.332;18.244;2024-01-15T10:34:43;98080.27;;;-5.53;100.00
19789;BME280;10054;59.332;18.244;2024-01-15T10:37:12;98084.58;;;-5.54;100.00
19789;BME280;10054;59.332;18.244;2024-01-15T10:39:41;98084.62;;;-5.55;100.00
19789;BME280;10054;59.332;18.244;2024-01-15T10:42:10;98084.01;;;-5.50;100.00
19789;BME280;10054;59.332;18.244;2024-01-15T10:44:39;98093.77;;;-5.48;100.00
19789;BME280;10054;59.332;18.244;2024-01-15T10:47:08;98103.78;;;-5.52;99.65
19789;BME280;10054;59.332;18.244;2024-01-15T10:49:37;98087.59;;;-5.54;99.66
19789;BME280;10054;59.332;18.244;2024-01-15T10:52:05;98089.14;;;-5.50;99.29
19789;BME280;10054;59.332;18.244;2024-01-15T10:54:37;98083.50;;;-5.48;98.53
19789;BME280;10054;59.332;18.244;2024-01-15T10:57:07;98093.33;;;-5.48;99.27
19789;BME280;10054;59.332;18.244;2024-01-15T10:59:37;98096.67;;;-5.46;99.62
19789;BME280;10054;59.332;18.244;2024-01-15T11:02:07;98092.88;;;-5.47;98.99
19789;BME280;10054;59.332;18.244;2024-01-15T11:04:39;98089.80;;;-5.45;99.01
19789;BME280;10054;59.332;18.244;2024-01-15T11:07:08;98096.97;;;-5.53;98.38
19789;BME280;10054;59.332;18.244;2024-01-15T11:09:38;98095.63;;;-5.52;99.37
19789;BME280;10054;59.332;18.244;2024-01-15T11:12:13;98097.86;;;-5.54;100.00
19789;BME280;10054;59.332;18.244;2024-01-15T11:14:45;98098.25;;;-5.53;100.00
19789;BME280;10054;59.332;18.244;2024-01-15T11:17:13;98100.05;;;-5.55;100.00
19789;BME280;10054;59.332;18.244;2024-01-15T11:19:46;98094.40;;;-5.53;100.00
19789;BME280;10054;59.332;18.244;2024-01-15T11:25:14;98104.45;;;-5.59;100.00
19789;BME280;10054;59.332;18.244;2024-01-15T11:27:45;98100.22;;;-5.60;100.00
19789;BME280;10054;59.332;18.244;2024-01-15T11:30:25;98105.41;;;-5.62;100.00
19789;BME280;10054;59.332;18.244;2024-01-15T11:32:54;98096.98;;;-5.65;100.00
19789;BME280;10054;59.332;18.244;2024-01-15T11:35:23;98098.27;;;-5.65;100.00
19789;BME280;10054;59.332;18.244;2024-01-15T11:40:36;98100.84;;;-5.65;100.00
19789;BME280;10054;59.332;18.244;2024-01-15T11:43:06;98097.65;;;-5.60;100.00
19789;BME280;10054;59.332;18.244;2024-01-15T11:45:39;98091.17;;;-5.58;100.00
19789;BME280;10054;59.332;18.244;2024-01-15T11:48:15;98094.06;;;-5.56;100.00
19789;BME280;10054;59.332;18.244;2024-01-15T11:50:50;98103.11;;;-5.57;100.00
19789;BME280;10054;59.332;18.244;2024-01-15T11:53:58;98102.28;;;-5.58;100.00
19789;BME280;10054;59.332;18.244;2024-01-15T11:55:59;98117.41;;;-5.62;100.00
19789;BME280;10054;59.332;18.244;2024-01-15T11:58:30;98100.45;;;-5.66;100.00
19789;BME280;10054;59.332;18.244;2024-01-15T12:00:59;98114.96;;;-5.65;100.00
19789;BME280;10054;59.332;18.244;2024-01-15T12:03:31;98096.48;;;-5.63;100.00
19789;BME280;10054;59.332;18.244;2024-01-15T12:06:05;98108.54;;;-5.65;99.37
19789;BME280;10054;59.332;18.244;2024-01-15T12:08:32;98111.11;;;-5.65;99.53
19789;BME280;10054;59.332;18.244;2024-01-15T12:11:11;98114.84;;;-5.62;100.00
19789;BME280;10054;59.332;18.244;2024-01-15T12:13:41;98113.62;;;-5.64;99.48
19789;BME280;10054;59.332;18.244;2024-01-15T12:16:10;98116.69;;;-5.66;98.55
19789;BME280;10054;59.332;18.244;2024-01-15T12:18:41;98123.44;;;-5.63;98.83
19789;BME280;10054;59.332;18.244;2024-01-15T12:21:10;98118.19;;;-5.60;99.21
19789;BME280;10054;59.332;18.244;2024-01-15T12:23:39;98125.06;;;-5.60;98.93
19789;BME280;10054;59.332;18.244;2024-01-15T12:26:08;98127.23;;;-5.62;98.11
19789;BME280;10054;59.332;18.244;2024-01-15T12:28:37;98126.91;;;-5.64;97.11
19789;BME280;10054;59.332;18.244;2024-01-15T12:31:07;98114.91;;;-5.64;97.42
19789;BME280;10054;59.332;18.244;2024-01-15T12:33:35;98133.05;;;-5.68;97.12
19789;BME280;10054;59.332;18.244;2024-01-15T12:36:05;98108.54;;;-5.65;96.49
19789;BME280;10054;59.332;18.244;2024-01-15T12:38:33;98116.63;;;-5.64;97.16
19789;BME280;10054;59.332;18.244;2024-01-15T12:41:02;98119.37;;;-5.69;96.65
19789;BME280;10054;59.332;18.244;2024-01-15T12:43:33;98123.28;;;-5.70;96.87
19789;BME280;10054;59.332;18.244;2024-01-15T12:46:02;98125.84;;;-5.70;97.90
19789;BME280;10054;59.332;18.244;2024-01-15T12:48:31;98133.55;;;-5.70;98.57
19789;BME280;10054;59.332;18.244;2024-01-15T12:51:00;98140.75;;;-5.68;99.45
19789;BME280;10054;59.332;18.244;2024-01-15T12:53:29;98137.07;;;-5.73;99.07
19789;BME280;10054;59.332;18.244;2024-01-15T12:55:59;98142.15;;;-5.71;100.00